createdAt,value
2018-08-23T00:00:17.526Z,27.20
2018-08-23T00:00:51.332Z,27.20
2018-08-23T00:01:24.374Z,27.20
2018-08-23T00:01:57.400Z,27.10
2018-08-23T00:02:30.919Z,27.20
2018-08-23T00:03:03.983Z,27.20
2018-08-23T00:03:37.078Z,27.20
2018-08-23T00:04:10.792Z,27.10
2018-08-23T00:04:44.587Z,27.10
2018-08-23T00:05:17.626Z,27.10
2018-08-23T00:05:50.657Z,27.10
2018-08-23T00:06:23.688Z,27.10
2018-08-23T00:06:56.721Z,27.10
2018-08-23T00:07:29.748Z,27.10
2018-08-23T00:08:03.666Z,27.10
2018-08-23T00:08:36.712Z,27.10
2018-08-23T00:09:09.731Z,27.10
2018-08-23T00:09:42.769Z,27.10
2018-08-23T00:10:16.568Z,27.00
2018-08-23T00:10:50.410Z,27.10
2018-08-23T00:11:24.167Z,27.10
2018-08-23T00:11:57.201Z,27.10
2018-08-23T00:12:30.841Z,27.00
2018-08-23T00:13:03.869Z,27.10
2018-08-23T00:13:36.907Z,27.10
2018-08-23T00:14:09.935Z,27.00
2018-08-23T00:14:42.957Z,27.00
2018-08-23T00:15:15.992Z,27.00
2018-08-23T00:15:49.814Z,27.00
2018-08-23T00:16:22.842Z,27.00
2018-08-23T00:16:55.874Z,27.00
2018-08-23T00:17:28.897Z,27.10
2018-08-23T00:18:02.690Z,27.00
2018-08-23T00:18:36.501Z,27.00
2018-08-23T00:19:09.532Z,27.00
2018-08-23T00:19:42.582Z,27.00
2018-08-23T00:20:15.613Z,27.10
2018-08-23T00:20:49.408Z,27.00
2018-08-23T00:21:22.469Z,27.00
2018-08-23T00:21:55.507Z,27.00
2018-08-23T00:22:28.520Z,27.00
2018-08-23T00:23:02.313Z,27.00
2018-08-23T00:23:36.103Z,27.00
2018-08-23T00:24:09.920Z,27.00
2018-08-23T00:24:42.940Z,27.00
2018-08-23T00:25:15.975Z,27.00
2018-08-23T00:25:49.065Z,27.00
2018-08-23T00:26:22.100Z,26.90
2018-08-23T00:26:55.907Z,27.00
2018-08-23T00:27:28.931Z,27.00
2018-08-23T00:28:01.967Z,27.00
2018-08-23T00:28:35.128Z,27.00
2018-08-23T00:29:08.142Z,27.00
2018-08-23T00:29:41.170Z,27.00
2018-08-23T00:30:14.199Z,27.00
2018-08-23T00:30:47.228Z,27.00
2018-08-23T00:31:21.035Z,27.00
2018-08-23T00:31:54.075Z,27.00
2018-08-23T00:32:27.121Z,26.90
2018-08-23T00:33:00.138Z,27.00
2018-08-23T00:33:33.936Z,26.90
2018-08-23T00:34:06.963Z,26.90
2018-08-23T00:34:39.987Z,26.90
2018-08-23T00:35:13.032Z,26.90
2018-08-23T00:35:46.059Z,26.90
2018-08-23T00:36:19.100Z,26.90
2018-08-23T00:36:52.133Z,26.90
2018-08-23T00:37:25.156Z,26.90
2018-08-23T00:37:58.185Z,26.90
2018-08-23T00:38:31.213Z,26.90
2018-08-23T00:39:04.258Z,26.80
2018-08-23T00:39:37.284Z,26.80
2018-08-23T00:40:10.469Z,26.90
2018-08-23T00:40:43.474Z,26.80
2018-08-23T00:41:16.527Z,26.90
2018-08-23T00:41:50.332Z,26.80
2018-08-23T00:42:23.361Z,26.80
2018-08-23T00:42:56.400Z,27.20
2018-08-23T00:43:29.526Z,26.80
2018-08-23T00:44:02.551Z,26.80
2018-08-23T00:44:35.587Z,26.80
2018-08-23T00:45:08.628Z,26.80
2018-08-23T00:45:41.841Z,26.80
2018-08-23T00:46:14.884Z,26.80
2018-08-23T00:46:47.920Z,26.80
2018-08-23T00:47:20.944Z,26.80
2018-08-23T00:47:53.964Z,26.80
2018-08-23T00:48:26.991Z,26.70
2018-08-23T00:49:00.037Z,26.70
2018-08-23T00:49:33.837Z,26.70
2018-08-23T00:50:07.620Z,26.70
2018-08-23T00:50:41.444Z,26.70
2018-08-23T00:51:14.680Z,26.70
2018-08-23T00:51:47.737Z,26.70
2018-08-23T00:52:20.771Z,26.70
2018-08-23T00:52:53.804Z,26.70
2018-08-23T00:53:26.848Z,26.70
2018-08-23T00:53:59.873Z,26.70
2018-08-23T00:54:33.692Z,26.70
2018-08-23T00:55:11.804Z,26.70
2018-08-23T00:55:44.836Z,26.70
2018-08-23T00:56:17.876Z,26.70
2018-08-23T00:56:50.911Z,26.60
2018-08-23T00:57:23.953Z,26.70
2018-08-23T00:57:57.012Z,26.60
2018-08-23T00:58:30.052Z,26.60
2018-08-23T00:59:03.099Z,26.60
2018-08-23T00:59:36.123Z,26.60
2018-08-23T01:00:09.167Z,26.60
2018-08-23T01:00:42.200Z,26.60
2018-08-23T01:01:15.245Z,26.60
2018-08-23T01:01:48.303Z,26.60
2018-08-23T01:02:21.342Z,26.60
2018-08-23T01:02:54.376Z,26.60
2018-08-23T01:03:27.404Z,26.60
2018-08-23T01:04:00.440Z,26.70
2018-08-23T01:04:34.244Z,26.50
2018-08-23T01:05:07.345Z,26.50
2018-08-23T01:05:40.529Z,26.50
2018-08-23T01:06:13.579Z,26.50
2018-08-23T01:06:46.619Z,26.50
2018-08-23T01:07:19.644Z,26.50
2018-08-23T01:07:52.686Z,26.50
2018-08-23T01:08:25.715Z,26.50
2018-08-23T01:08:58.748Z,26.40
2018-08-23T01:09:32.558Z,26.50
2018-08-23T01:10:05.600Z,26.40
2018-08-23T01:10:38.631Z,26.40
2018-08-23T01:11:11.656Z,26.40
2018-08-23T01:11:45.476Z,26.40
2018-08-23T01:12:18.686Z,26.40
2018-08-23T01:12:51.724Z,26.40
2018-08-23T01:13:24.769Z,26.40
2018-08-23T01:13:57.784Z,26.40
2018-08-23T01:14:30.963Z,26.40
2018-08-23T01:15:04.002Z,26.40
2018-08-23T01:15:37.021Z,26.40
2018-08-23T01:16:10.063Z,26.40
2018-08-23T01:16:43.880Z,26.30
2018-08-23T01:17:16.907Z,26.30
2018-08-23T01:17:49.937Z,26.40
2018-08-23T01:18:22.960Z,26.30
2018-08-23T01:18:56.748Z,26.30
2018-08-23T01:19:29.780Z,26.30
2018-08-23T01:20:02.803Z,26.30
2018-08-23T01:20:36.600Z,26.30
2018-08-23T01:21:09.635Z,26.30
2018-08-23T01:21:42.691Z,26.30
2018-08-23T01:22:15.713Z,26.30
2018-08-23T01:22:48.752Z,26.30
2018-08-23T01:23:21.788Z,26.30
2018-08-23T01:23:54.828Z,26.20
2018-08-23T01:24:27.855Z,26.20
2018-08-23T01:25:00.945Z,26.20
2018-08-23T01:25:33.973Z,26.20
2018-08-23T01:26:07.086Z,26.20
2018-08-23T01:26:40.124Z,26.20
2018-08-23T01:27:13.164Z,26.20
2018-08-23T01:27:46.207Z,26.20
2018-08-23T01:28:19.247Z,26.20
2018-08-23T01:28:53.044Z,26.20
2018-08-23T01:29:26.076Z,26.20
2018-08-23T01:29:59.133Z,26.20
2018-08-23T01:30:32.169Z,26.20
2018-08-23T01:31:05.282Z,26.20
2018-08-23T01:31:38.304Z,26.10
2018-08-23T01:32:11.437Z,26.20
2018-08-23T01:32:44.470Z,26.10
2018-08-23T01:33:17.575Z,26.10
2018-08-23T01:33:50.604Z,26.10
2018-08-23T01:34:23.648Z,26.10
2018-08-23T01:34:56.667Z,26.10
2018-08-23T01:35:30.458Z,26.10
2018-08-23T01:36:04.255Z,26.10
2018-08-23T01:36:38.076Z,26.10
2018-08-23T01:37:11.265Z,26.10
2018-08-23T01:37:44.308Z,26.10
2018-08-23T01:38:18.099Z,26.00
2018-08-23T01:38:51.127Z,26.00
2018-08-23T01:39:24.929Z,26.00
2018-08-23T01:39:57.953Z,26.00
2018-08-23T01:40:30.984Z,26.00
2018-08-23T01:41:04.009Z,26.00
2018-08-23T01:41:37.098Z,26.00
2018-08-23T01:42:10.137Z,26.00
2018-08-23T01:42:43.188Z,26.00
2018-08-23T01:43:16.217Z,26.00
2018-08-23T01:43:49.248Z,26.00
2018-08-23T01:44:22.271Z,26.00
2018-08-23T01:44:55.304Z,26.00
2018-08-23T01:45:29.104Z,25.90
2018-08-23T01:46:02.128Z,25.90
2018-08-23T01:46:35.151Z,25.90
2018-08-23T01:47:08.205Z,25.90
2018-08-23T01:47:41.236Z,25.90
2018-08-23T01:48:14.408Z,25.90
2018-08-23T01:48:48.500Z,25.90
2018-08-23T01:49:21.529Z,25.80
2018-08-23T01:49:54.566Z,25.90
2018-08-23T01:50:27.589Z,25.90
2018-08-23T01:51:00.623Z,25.90
2018-08-23T01:51:33.662Z,25.80
2018-08-23T01:52:06.706Z,25.80
2018-08-23T01:52:39.744Z,25.80
2018-08-23T01:53:13.552Z,25.80
2018-08-23T01:53:46.584Z,25.80
2018-08-23T01:54:19.624Z,25.80
2018-08-23T01:54:52.679Z,25.80
2018-08-23T01:55:25.704Z,25.80
2018-08-23T01:55:58.738Z,25.80
2018-08-23T01:56:31.776Z,25.80
2018-08-23T01:57:04.821Z,25.80
2018-08-23T01:57:37.851Z,25.70
2018-08-23T01:58:11.004Z,25.70
2018-08-23T01:58:44.048Z,25.70
2018-08-23T01:59:17.837Z,25.70
2018-08-23T01:59:50.872Z,25.70
2018-08-23T02:00:23.916Z,25.70
2018-08-23T02:00:56.643Z,25.70
2018-08-23T02:01:29.146Z,25.70
2018-08-23T02:02:01.651Z,25.70
2018-08-23T02:02:34.931Z,25.70
2018-08-23T02:03:07.427Z,25.70
2018-08-23T02:03:40.077Z,25.70
2018-08-23T02:04:12.596Z,25.70
2018-08-23T02:04:45.553Z,25.70
2018-08-23T02:05:18.603Z,25.70
2018-08-23T02:05:51.193Z,25.70
2018-08-23T02:06:24.139Z,25.70
2018-08-23T02:06:57.179Z,25.70
2018-08-23T02:07:30.229Z,25.60
2018-08-23T02:08:03.596Z,25.70
2018-08-23T02:08:36.607Z,25.60
2018-08-23T02:09:09.642Z,25.60
2018-08-23T02:09:42.672Z,25.60
2018-08-23T02:10:15.768Z,25.60
2018-08-23T02:10:48.796Z,25.60
2018-08-23T02:11:21.821Z,25.60
2018-08-23T02:11:54.874Z,25.60
2018-08-23T02:12:28.932Z,25.60
2018-08-23T02:13:01.974Z,25.60
2018-08-23T02:13:35.030Z,25.60
2018-08-23T02:14:08.838Z,25.50
2018-08-23T02:14:42.139Z,25.50
2018-08-23T02:15:15.183Z,25.50
2018-08-23T02:15:48.239Z,25.50
2018-08-23T02:16:21.291Z,25.50
2018-08-23T02:16:54.332Z,25.60
2018-08-23T02:17:27.371Z,25.50
2018-08-23T02:18:00.399Z,25.50
2018-08-23T02:18:33.434Z,25.50
2018-08-23T02:19:07.251Z,25.50
2018-08-23T02:19:40.276Z,25.50
2018-08-23T02:20:13.600Z,25.50
2018-08-23T02:20:46.787Z,25.50
2018-08-23T02:21:19.817Z,25.50
2018-08-23T02:21:52.939Z,25.50
2018-08-23T02:22:25.546Z,25.50
2018-08-23T02:22:59.260Z,25.40
2018-08-23T02:23:32.628Z,25.40
2018-08-23T02:24:05.126Z,25.40
2018-08-23T02:24:37.639Z,25.40
2018-08-23T02:25:10.912Z,25.40
2018-08-23T02:25:43.863Z,25.40
2018-08-23T02:26:16.469Z,25.40
2018-08-23T02:26:49.951Z,25.40
2018-08-23T02:27:22.489Z,25.30
2018-08-23T02:27:54.987Z,25.40
2018-08-23T02:28:27.496Z,25.40
2018-08-23T02:29:00.000Z,25.40
2018-08-23T02:29:33.724Z,25.30
2018-08-23T02:30:06.332Z,25.30
2018-08-23T02:30:39.309Z,25.30
2018-08-23T02:31:11.904Z,25.30
2018-08-23T02:31:45.598Z,25.30
2018-08-23T02:32:18.963Z,25.30
2018-08-23T02:32:51.908Z,25.30
2018-08-23T02:33:24.967Z,25.30
2018-08-23T02:33:58.012Z,25.30
2018-08-23T02:34:31.044Z,25.30
2018-08-23T02:35:04.085Z,25.30
2018-08-23T02:35:37.121Z,25.20
2018-08-23T02:36:10.934Z,25.20
2018-08-23T02:36:44.032Z,25.20
2018-08-23T02:37:17.216Z,25.20
2018-08-23T02:37:50.256Z,25.20
2018-08-23T02:38:23.288Z,25.20
2018-08-23T02:38:56.327Z,25.20
2018-08-23T02:39:29.055Z,25.20
2018-08-23T02:40:01.575Z,25.20
2018-08-23T02:40:34.188Z,25.20
2018-08-23T02:41:06.707Z,25.20
2018-08-23T02:41:39.219Z,25.20
2018-08-23T02:42:11.720Z,25.20
2018-08-23T02:42:44.239Z,25.10
2018-08-23T02:43:17.251Z,25.10
2018-08-23T02:43:50.290Z,25.10
2018-08-23T02:44:23.316Z,25.10
2018-08-23T02:44:55.907Z,25.10
2018-08-23T02:45:28.406Z,25.10
2018-08-23T02:46:01.036Z,25.10
2018-08-23T02:46:33.995Z,25.10
2018-08-23T02:47:06.588Z,25.10
2018-08-23T02:47:39.106Z,25.10
2018-08-23T02:48:11.607Z,25.10
2018-08-23T02:48:44.123Z,25.10
2018-08-23T02:49:17.063Z,25.10
2018-08-23T02:49:50.098Z,25.10
2018-08-23T02:50:23.127Z,25.10
2018-08-23T02:50:56.169Z,25.10
2018-08-23T02:51:29.535Z,25.10
2018-08-23T02:52:02.804Z,25.00
2018-08-23T02:52:36.086Z,25.00
2018-08-23T02:53:08.590Z,25.00
2018-08-23T02:53:41.099Z,25.00
2018-08-23T02:54:13.588Z,25.00
2018-08-23T02:54:46.168Z,25.00
2018-08-23T02:55:18.675Z,25.00
2018-08-23T02:55:51.175Z,25.00
2018-08-23T02:56:23.683Z,25.00
2018-08-23T02:56:56.648Z,25.00
2018-08-23T02:57:29.663Z,25.00
2018-08-23T02:58:02.837Z,25.00
2018-08-23T02:58:35.873Z,25.00
2018-08-23T02:59:08.454Z,25.00
2018-08-23T02:59:40.955Z,25.00
2018-08-23T03:00:14.227Z,24.90
2018-08-23T03:00:46.809Z,25.00
2018-08-23T03:01:19.305Z,24.90
2018-08-23T03:01:51.815Z,24.90
2018-08-23T03:02:25.563Z,24.90
2018-08-23T03:02:58.167Z,24.90
2018-08-23T03:03:31.474Z,24.90
2018-08-23T03:04:04.014Z,24.90
2018-08-23T03:04:37.287Z,24.90
2018-08-23T03:05:09.787Z,24.90
2018-08-23T03:05:42.286Z,24.90
2018-08-23T03:06:15.552Z,24.90
2018-08-23T03:06:48.071Z,24.90
2018-08-23T03:07:21.339Z,24.90
2018-08-23T03:07:53.855Z,24.90
2018-08-23T03:08:26.812Z,24.80
2018-08-23T03:08:59.850Z,24.90
2018-08-23T03:09:32.895Z,24.80
2018-08-23T03:10:05.936Z,24.90
2018-08-23T03:10:39.280Z,24.80
2018-08-23T03:11:12.550Z,24.80
2018-08-23T03:11:45.076Z,24.80
2018-08-23T03:12:17.564Z,24.80
2018-08-23T03:12:50.078Z,24.80
2018-08-23T03:13:22.579Z,24.80
2018-08-23T03:13:55.111Z,24.80
2018-08-23T03:14:28.354Z,25.00
2018-08-23T03:15:01.630Z,24.80
2018-08-23T03:15:35.335Z,24.80
2018-08-23T03:16:08.029Z,24.80
2018-08-23T03:16:40.531Z,24.80
2018-08-23T03:17:13.027Z,24.80
2018-08-23T03:17:46.313Z,24.80
2018-08-23T03:18:18.832Z,24.80
2018-08-23T03:18:51.330Z,24.80
2018-08-23T03:19:24.594Z,24.80
2018-08-23T03:19:57.100Z,24.80
2018-08-23T03:20:29.748Z,24.80
2018-08-23T03:21:02.248Z,24.80
2018-08-23T03:21:35.203Z,24.80
2018-08-23T03:22:08.233Z,24.80
2018-08-23T03:22:40.817Z,24.80
2018-08-23T03:23:13.350Z,24.80
2018-08-23T03:23:45.859Z,24.70
2018-08-23T03:24:18.359Z,24.80
2018-08-23T03:24:50.863Z,24.70
2018-08-23T03:25:23.393Z,24.80
2018-08-23T03:25:55.908Z,24.70
2018-08-23T03:26:28.568Z,24.80
2018-08-23T03:27:01.059Z,24.70
2018-08-23T03:27:34.010Z,24.70
2018-08-23T03:28:07.056Z,24.70
2018-08-23T03:28:40.089Z,24.70
2018-08-23T03:29:13.438Z,24.70
2018-08-23T03:29:46.383Z,24.70
2018-08-23T03:30:18.994Z,24.70
2018-08-23T03:30:51.503Z,24.70
2018-08-23T03:31:24.444Z,24.70
2018-08-23T03:31:57.468Z,24.70
2018-08-23T03:32:32.022Z,24.70
2018-08-23T03:33:05.090Z,24.70
2018-08-23T03:33:38.129Z,24.70
2018-08-23T03:34:11.495Z,24.70
2018-08-23T03:34:44.547Z,24.60
2018-08-23T03:35:17.587Z,24.70
2018-08-23T03:35:50.623Z,24.70
2018-08-23T03:36:23.654Z,24.60
2018-08-23T03:36:56.682Z,24.60
2018-08-23T03:37:30.486Z,24.60
2018-08-23T03:38:04.276Z,24.60
2018-08-23T03:38:38.089Z,24.60
2018-08-23T03:39:11.132Z,24.60
2018-08-23T03:39:44.263Z,24.60
2018-08-23T03:40:17.291Z,24.60
2018-08-23T03:40:50.328Z,24.60
2018-08-23T03:41:23.355Z,24.60
2018-08-23T03:41:56.404Z,24.50
2018-08-23T03:42:29.433Z,24.60
2018-08-23T03:43:02.470Z,24.50
2018-08-23T03:43:36.276Z,24.50
2018-08-23T03:44:09.327Z,24.60
2018-08-23T03:44:42.367Z,24.60
2018-08-23T03:45:16.180Z,24.50
2018-08-23T03:45:49.217Z,24.50
2018-08-23T03:46:22.396Z,24.50
2018-08-23T03:46:55.440Z,24.00
2018-08-23T03:47:28.484Z,24.50
2018-08-23T03:48:01.528Z,24.50
2018-08-23T03:48:34.573Z,24.50
2018-08-23T03:49:07.615Z,24.50
2018-08-23T03:49:41.416Z,24.50
2018-08-23T03:50:15.215Z,24.50
2018-08-23T03:50:49.012Z,24.50
2018-08-23T03:51:22.808Z,24.50
2018-08-23T03:51:56.592Z,24.40
2018-08-23T03:52:31.057Z,24.40
2018-08-23T03:53:04.043Z,24.40
2018-08-23T03:53:36.663Z,24.50
2018-08-23T03:54:09.623Z,24.40
2018-08-23T03:54:42.664Z,24.40
2018-08-23T03:55:15.699Z,24.40
2018-08-23T03:55:48.732Z,24.40
2018-08-23T03:56:21.776Z,24.40
2018-08-23T03:56:55.577Z,24.40
2018-08-23T03:57:28.615Z,24.40
2018-08-23T03:58:01.665Z,24.40
2018-08-23T03:58:34.702Z,24.40
2018-08-23T03:59:07.765Z,24.40
2018-08-23T03:59:40.793Z,24.40
2018-08-23T04:00:13.856Z,24.40
2018-08-23T04:00:46.892Z,24.40
2018-08-23T04:01:19.928Z,24.30
2018-08-23T04:01:52.964Z,24.40
2018-08-23T04:02:26.755Z,24.40
2018-08-23T04:03:00.573Z,24.30
2018-08-23T04:03:33.624Z,24.30
2018-08-23T04:04:06.759Z,24.30
2018-08-23T04:04:40.030Z,24.30
2018-08-23T04:05:13.085Z,24.30
2018-08-23T04:05:46.418Z,24.30
2018-08-23T04:06:20.474Z,24.30
2018-08-23T04:06:52.971Z,24.30
2018-08-23T04:07:25.936Z,24.30
2018-08-23T04:07:58.985Z,24.30
2018-08-23T04:08:31.583Z,24.30
2018-08-23T04:09:04.103Z,24.30
2018-08-23T04:09:36.608Z,24.30
2018-08-23T04:10:09.122Z,24.30
2018-08-23T04:10:41.624Z,24.30
2018-08-23T04:11:14.142Z,24.30
2018-08-23T04:11:46.635Z,24.20
2018-08-23T04:12:19.143Z,24.20
2018-08-23T04:12:51.654Z,24.20
2018-08-23T04:13:24.166Z,24.20
2018-08-23T04:13:56.688Z,24.20
2018-08-23T04:14:29.221Z,24.20
2018-08-23T04:15:01.742Z,24.20
2018-08-23T04:15:35.002Z,24.20
2018-08-23T04:16:07.516Z,24.10
2018-08-23T04:16:40.323Z,24.20
2018-08-23T04:17:12.861Z,24.10
2018-08-23T04:17:45.668Z,24.20
2018-08-23T04:18:18.274Z,24.10
2018-08-23T04:18:50.775Z,24.10
2018-08-23T04:19:23.302Z,24.10
2018-08-23T04:19:55.813Z,24.10
2018-08-23T04:20:28.335Z,24.10
2018-08-23T04:21:00.843Z,24.10
2018-08-23T04:21:33.788Z,24.10
2018-08-23T04:22:06.399Z,24.10
2018-08-23T04:22:39.715Z,24.10
2018-08-23T04:23:12.160Z,24.10
2018-08-23T04:23:44.663Z,24.10
2018-08-23T04:24:17.167Z,24.10
2018-08-23T04:24:50.451Z,24.10
2018-08-23T04:25:23.715Z,24.10
2018-08-23T04:25:56.217Z,24.10
2018-08-23T04:26:28.716Z,24.00
2018-08-23T04:27:01.227Z,24.10
2018-08-23T04:27:34.507Z,24.00
2018-08-23T04:28:07.769Z,24.10
2018-08-23T04:28:41.036Z,24.10
2018-08-23T04:29:13.539Z,24.10
2018-08-23T04:29:46.526Z,24.10
2018-08-23T04:30:20.317Z,24.00
2018-08-23T04:30:53.415Z,24.00
2018-08-23T04:31:27.914Z,24.00
2018-08-23T04:33:18.087Z,23.90
2018-08-23T04:33:50.600Z,23.90
2018-08-23T04:34:23.858Z,24.00
2018-08-23T04:34:56.379Z,24.00
2018-08-23T04:35:28.863Z,24.00
2018-08-23T04:36:01.360Z,24.00
2018-08-23T04:36:34.106Z,24.00
2018-08-23T04:37:06.594Z,24.00
2018-08-23T04:37:39.120Z,24.00
2018-08-23T04:38:11.626Z,23.90
2018-08-23T04:38:44.127Z,24.00
2018-08-23T04:39:16.627Z,23.90
2018-08-23T04:39:49.292Z,24.00
2018-08-23T04:40:21.782Z,23.90
2018-08-23T04:40:55.055Z,23.90
2018-08-23T04:41:27.564Z,23.90
2018-08-23T04:42:00.063Z,23.90
2018-08-23T04:42:32.610Z,23.90
2018-08-23T04:43:05.130Z,24.00
2018-08-23T04:43:37.609Z,23.90
2018-08-23T04:44:10.093Z,23.90
2018-08-23T04:44:42.606Z,23.90
2018-08-23T04:45:15.132Z,24.00
2018-08-23T04:45:47.643Z,23.90
2018-08-23T04:46:20.162Z,23.90
2018-08-23T04:46:53.432Z,23.90
2018-08-23T04:47:26.725Z,23.90
2018-08-23T04:47:59.239Z,23.90
2018-08-23T04:48:31.783Z,23.90
2018-08-23T04:49:04.296Z,23.90
2018-08-23T04:49:36.796Z,23.90
2018-08-23T04:50:10.055Z,23.90
2018-08-23T04:50:42.916Z,23.90
2018-08-23T04:51:15.412Z,23.90
2018-08-23T04:51:48.068Z,23.90
2018-08-23T04:52:20.564Z,23.90
2018-08-23T04:52:53.092Z,23.90
2018-08-23T04:53:25.583Z,23.90
2018-08-23T04:53:58.094Z,23.90
2018-08-23T04:54:31.346Z,23.90
2018-08-23T04:55:03.991Z,23.80
2018-08-23T04:55:36.516Z,23.90
2018-08-23T04:56:09.017Z,23.90
2018-08-23T04:56:41.517Z,23.80
2018-08-23T04:57:14.008Z,23.80
2018-08-23T04:57:46.605Z,23.80
2018-08-23T04:58:19.105Z,23.80
2018-08-23T04:58:51.599Z,23.80
2018-08-23T04:59:24.888Z,23.80
2018-08-23T04:59:57.382Z,23.80
2018-08-23T05:00:30.075Z,23.90
2018-08-23T05:01:02.575Z,23.80
2018-08-23T05:01:35.071Z,23.80
2018-08-23T05:02:07.803Z,23.80
2018-08-23T05:02:40.303Z,23.90
2018-08-23T05:03:12.793Z,23.80
2018-08-23T05:03:45.314Z,23.80
2018-08-23T05:04:17.822Z,23.80
2018-08-23T05:04:50.307Z,23.80
2018-08-23T05:05:23.580Z,23.80
2018-08-23T05:05:56.105Z,23.80
2018-08-23T05:06:28.592Z,23.80
2018-08-23T05:07:01.093Z,23.80
2018-08-23T05:07:34.354Z,23.80
2018-08-23T05:08:07.634Z,23.80
2018-08-23T05:08:40.916Z,23.80
2018-08-23T05:09:13.420Z,23.80
2018-08-23T05:09:45.931Z,23.80
2018-08-23T05:10:18.445Z,23.80
2018-08-23T05:10:50.951Z,23.80
2018-08-23T05:11:23.455Z,23.80
2018-08-23T05:11:56.121Z,23.80
2018-08-23T05:12:28.934Z,23.80
2018-08-23T05:13:01.455Z,23.80
2018-08-23T05:13:33.964Z,23.80
2018-08-23T05:14:06.520Z,23.80
2018-08-23T05:14:38.995Z,23.80
2018-08-23T05:15:11.526Z,23.80
2018-08-23T05:15:44.031Z,23.80
2018-08-23T05:16:16.637Z,23.80
2018-08-23T05:16:49.139Z,23.80
2018-08-23T05:17:21.631Z,23.80
2018-08-23T05:17:54.912Z,23.80
2018-08-23T05:18:27.409Z,23.80
2018-08-23T05:18:59.912Z,23.80
2018-08-23T05:19:32.418Z,23.80
2018-08-23T05:20:04.942Z,23.80
2018-08-23T05:20:37.434Z,23.80
2018-08-23T05:21:10.104Z,23.80
2018-08-23T05:21:42.604Z,23.80
2018-08-23T05:22:15.111Z,23.80
2018-08-23T05:22:48.383Z,23.80
2018-08-23T05:23:21.800Z,23.80
2018-08-23T05:23:54.199Z,23.80
2018-08-23T05:24:26.699Z,23.80
2018-08-23T05:24:59.217Z,23.80
2018-08-23T05:25:31.723Z,23.80
2018-08-23T05:26:05.015Z,23.80
2018-08-23T05:26:37.526Z,23.80
2018-08-23T05:27:10.028Z,23.80
2018-08-23T05:27:43.301Z,23.80
2018-08-23T05:28:15.836Z,23.80
2018-08-23T05:28:48.332Z,23.80
2018-08-23T05:29:21.607Z,23.80
2018-08-23T05:29:54.134Z,23.80
2018-08-23T05:30:26.624Z,23.80
2018-08-23T05:30:59.895Z,23.80
2018-08-23T05:31:32.409Z,23.80
2018-08-23T05:32:05.314Z,23.80
2018-08-23T05:32:37.824Z,23.80
2018-08-23T05:33:10.333Z,23.80
2018-08-23T05:33:42.836Z,23.80
2018-08-23T05:34:16.096Z,23.80
2018-08-23T05:34:48.615Z,23.80
2018-08-23T05:35:21.130Z,23.80
2018-08-23T05:35:53.621Z,23.80
2018-08-23T05:36:26.136Z,23.80
2018-08-23T05:36:58.636Z,23.80
2018-08-23T05:37:31.141Z,23.80
2018-08-23T05:38:03.643Z,23.80
2018-08-23T05:38:36.231Z,23.80
2018-08-23T05:39:08.735Z,23.80
2018-08-23T05:39:41.462Z,23.80
2018-08-23T05:40:13.946Z,23.80
2018-08-23T05:40:46.460Z,23.80
2018-08-23T05:41:19.724Z,23.80
2018-08-23T05:41:52.244Z,23.80
2018-08-23T05:42:25.926Z,23.80
2018-08-23T05:42:58.383Z,23.90
2018-08-23T05:43:30.931Z,23.90
2018-08-23T05:44:03.431Z,23.90
2018-08-23T05:44:35.931Z,23.90
2018-08-23T05:45:08.443Z,23.80
2018-08-23T05:45:40.940Z,23.90
2018-08-23T05:46:13.447Z,23.90
2018-08-23T05:46:46.163Z,23.90
2018-08-23T05:47:18.680Z,23.90
2018-08-23T05:47:51.185Z,23.90
2018-08-23T05:48:23.703Z,23.90
2018-08-23T05:48:56.383Z,23.90
2018-08-23T05:49:28.882Z,23.90
2018-08-23T05:50:01.399Z,23.90
2018-08-23T05:50:33.904Z,23.90
2018-08-23T05:51:06.402Z,23.90
2018-08-23T05:51:39.247Z,23.90
2018-08-23T05:52:12.008Z,23.90
2018-08-23T05:52:44.779Z,23.90
2018-08-23T05:53:18.038Z,23.90
2018-08-23T05:53:50.572Z,23.90
2018-08-23T05:54:23.087Z,23.90
2018-08-23T05:54:55.583Z,23.90
2018-08-23T05:55:28.140Z,23.90
2018-08-23T05:56:00.715Z,24.00
2018-08-23T05:56:33.211Z,24.00
2018-08-23T05:57:05.717Z,24.00
2018-08-23T05:57:38.983Z,24.00
2018-08-23T05:58:11.491Z,24.00
2018-08-23T05:58:44.030Z,24.00
2018-08-23T05:59:17.303Z,24.00
2018-08-23T05:59:50.575Z,24.00
2018-08-23T06:00:23.088Z,24.00
2018-08-23T06:00:55.591Z,24.00
2018-08-23T06:01:28.096Z,24.00
2018-08-23T06:02:00.631Z,24.00
2018-08-23T06:02:33.111Z,24.10
2018-08-23T06:03:05.606Z,24.10
2018-08-23T06:03:38.139Z,24.00
2018-08-23T06:04:10.650Z,24.10
2018-08-23T06:04:43.174Z,24.10
2018-08-23T06:05:15.675Z,24.00
2018-08-23T06:05:48.180Z,24.10
2018-08-23T06:06:21.451Z,24.10
2018-08-23T06:06:54.715Z,24.10
2018-08-23T06:07:27.219Z,24.10
2018-08-23T06:07:59.729Z,24.10
2018-08-23T06:08:33.041Z,24.10
2018-08-23T06:09:05.499Z,24.10
2018-08-23T06:09:38.767Z,24.10
2018-08-23T06:10:12.039Z,24.10
2018-08-23T06:10:44.545Z,24.10
2018-08-23T06:11:17.207Z,24.20
2018-08-23T06:11:49.732Z,24.10
2018-08-23T06:12:22.240Z,24.20
2018-08-23T06:12:54.918Z,24.20
2018-08-23T06:13:27.425Z,24.20
2018-08-23T06:13:59.944Z,24.20
2018-08-23T06:14:32.435Z,24.20
2018-08-23T06:15:04.944Z,24.20
2018-08-23T06:15:37.475Z,24.30
2018-08-23T06:16:09.979Z,24.20
2018-08-23T06:16:42.482Z,24.30
2018-08-23T06:17:14.984Z,24.30
2018-08-23T06:17:48.251Z,24.30
2018-08-23T06:18:21.535Z,24.30
2018-08-23T06:18:55.287Z,24.30
2018-08-23T06:19:27.889Z,24.30
2018-08-23T06:20:00.469Z,24.30
2018-08-23T06:20:32.967Z,24.30
2018-08-23T06:21:05.492Z,24.30
2018-08-23T06:21:38.456Z,24.30
2018-08-23T06:22:11.595Z,24.30
2018-08-23T06:22:44.628Z,24.30
2018-08-23T06:23:18.447Z,24.40
2018-08-23T06:23:51.501Z,24.40
2018-08-23T06:24:24.848Z,24.40
2018-08-23T06:24:58.141Z,24.40
2018-08-23T06:25:31.408Z,24.40
2018-08-23T06:26:03.926Z,24.40
2018-08-23T06:26:36.432Z,24.40
2018-08-23T06:27:09.715Z,24.40
2018-08-23T06:27:42.242Z,24.30
2018-08-23T06:28:14.750Z,24.40
2018-08-23T06:28:48.037Z,24.40
2018-08-23T06:29:20.547Z,24.40
2018-08-23T06:29:53.054Z,24.40
2018-08-23T06:30:26.010Z,24.40
2018-08-23T06:30:59.044Z,24.50
2018-08-23T06:31:32.133Z,24.50
2018-08-23T06:32:05.172Z,24.50
2018-08-23T06:32:38.532Z,24.60
2018-08-23T06:33:12.018Z,24.60
2018-08-23T06:33:44.429Z,24.50
2018-08-23T06:34:16.912Z,24.60
2018-08-23T06:34:49.427Z,24.60
2018-08-23T06:35:21.944Z,24.60
2018-08-23T06:35:54.455Z,24.60
2018-08-23T06:36:26.960Z,24.60
2018-08-23T06:36:59.472Z,24.60
2018-08-23T06:37:32.011Z,24.60
2018-08-23T06:38:05.288Z,24.60
2018-08-23T06:38:37.829Z,24.60
2018-08-23T06:39:10.355Z,24.60
2018-08-23T06:39:42.882Z,24.60
2018-08-23T06:40:15.416Z,24.60
2018-08-23T06:40:48.693Z,24.70
2018-08-23T06:41:21.231Z,24.70
2018-08-23T06:41:53.783Z,24.70
2018-08-23T06:42:26.312Z,24.70
2018-08-23T06:42:58.839Z,24.70
2018-08-23T06:43:31.387Z,24.70
2018-08-23T06:44:03.903Z,24.70
2018-08-23T06:44:36.519Z,24.70
2018-08-23T06:45:08.984Z,24.70
2018-08-23T06:45:41.505Z,24.80
2018-08-23T06:46:14.067Z,24.80
2018-08-23T06:46:46.514Z,24.80
2018-08-23T06:47:19.788Z,24.80
2018-08-23T06:47:53.059Z,24.90
2018-08-23T06:48:25.793Z,24.90
2018-08-23T06:48:58.564Z,25.00
2018-08-23T06:49:30.960Z,25.00
2018-08-23T06:50:03.557Z,25.10
2018-08-23T06:50:36.077Z,25.20
2018-08-23T06:51:09.566Z,25.10
2018-08-23T06:51:42.799Z,25.20
2018-08-23T06:52:15.347Z,25.20
2018-08-23T06:52:47.871Z,25.20
2018-08-23T06:53:21.167Z,25.30
2018-08-23T06:53:53.675Z,25.30
2018-08-23T06:54:26.195Z,25.30
2018-08-23T06:54:59.467Z,25.30
2018-08-23T06:55:31.971Z,25.30
2018-08-23T06:56:04.469Z,25.40
2018-08-23T06:56:36.973Z,25.40
2018-08-23T06:57:09.475Z,25.40
2018-08-23T06:57:42.267Z,25.40
2018-08-23T06:58:14.791Z,25.40
2018-08-23T06:58:47.318Z,25.40
2018-08-23T06:59:19.811Z,25.50
2018-08-23T06:59:53.070Z,25.50
2018-08-23T07:00:25.731Z,25.50
2018-08-23T07:00:58.311Z,25.50
2018-08-23T07:01:30.820Z,25.50
2018-08-23T07:02:03.406Z,25.60
2018-08-23T07:02:35.904Z,25.70
2018-08-23T07:03:08.415Z,25.70
2018-08-23T07:03:40.949Z,25.70
2018-08-23T07:04:13.447Z,25.70
2018-08-23T07:04:45.951Z,25.80
2018-08-23T07:05:18.486Z,25.90